sensor_id;sensor_type;location;lat;lon;timestamp;P1;durP1;ratioP1;P2;durP2;ratioP2
50671;SDS011;46021;55.882;37.654;2022-09-12T00:00:25;12.88;;;6.50;;
50671;SDS011;46021;55.882;37.654;2022-09-12T00:02:52;12.57;;;6.83;;
50671;SDS011;46021;55.882;37.654;2022-09-12T00:05:19;15.23;;;7.00;;
50671;SDS011;46021;55.882;37.654;2022-09-12T00:07:47;12.57;;;7.32;;
50671;SDS011;46021;55.882;37.654;2022-09-12T00:10:14;14.70;;;7.40;;
50671;SDS011;46021;55.882;37.654;2022-09-12T00:12:41;15.18;;;7.45;;
50671;SDS011;46021;55.882;37.654;2022-09-12T00:15:08;12.52;;;7.22;;
50671;SDS011;46021;55.882;37.654;2022-09-12T00:17:36;15.35;;;7.70;;
50671;SDS011;46021;55.882;37.654;2022-09-12T00:20:04;19.98;;;7.18;;
50671;SDS011;46021;55.882;37.654;2022-09-12T00:22:32;10.35;;;6.03;;
50671;SDS011;46021;55.882;37.654;2022-09-12T00:24:59;13.13;;;6.90;;
50671;SDS011;46021;55.882;37.654;2022-09-12T00:27:26;14.02;;;6.55;;
50671;SDS011;46021;55.882;37.654;2022-09-12T00:29:53;12.70;;;6.93;;
50671;SDS011;46021;55.882;37.654;2022-09-12T00:32:19;15.43;;;6.97;;
50671;SDS011;46021;55.882;37.654;2022-09-12T00:34:46;15.23;;;6.55;;
50671;SDS011;46021;55.882;37.654;2022-09-12T00:37:13;16.42;;;6.70;;
50671;SDS011;46021;55.882;37.654;2022-09-12T00:39:39;11.27;;;6.68;;
50671;SDS011;46021;55.882;37.654;2022-09-12T00:42:08;13.85;;;6.70;;
50671;SDS011;46021;55.882;37.654;2022-09-12T00:44:49;13.50;;;7.00;;
50671;SDS011;46021;55.882;37.654;2022-09-12T00:47:18;11.18;;;6.28;;
50671;SDS011;46021;55.882;37.654;2022-09-12T00:49:49;12.50;;;6.72;;
50671;SDS011;46021;55.882;37.654;2022-09-12T00:52:21;14.68;;;6.75;;
50671;SDS011;46021;55.882;37.654;2022-09-12T00:54:54;13.63;;;6.30;;
50671;SDS011;46021;55.882;37.654;2022-09-12T00:57:25;13.95;;;6.72;;
50671;SDS011;46021;55.882;37.654;2022-09-12T00:59:56;11.68;;;6.70;;
50671;SDS011;46021;55.882;37.654;2022-09-12T01:02:26;19.23;;;7.40;;
50671;SDS011;46021;55.882;37.654;2022-09-12T01:04:53;12.57;;;6.80;;
50671;SDS011;46021;55.882;37.654;2022-09-12T01:07:20;14.85;;;6.15;;
50671;SDS011;46021;55.882;37.654;2022-09-12T01:09:47;13.10;;;6.03;;
50671;SDS011;46021;55.882;37.654;2022-09-12T01:12:14;12.87;;;6.57;;
50671;SDS011;46021;55.882;37.654;2022-09-12T01:14:43;14.02;;;6.75;;
50671;SDS011;46021;55.882;37.654;2022-09-12T01:17:10;12.25;;;6.97;;
50671;SDS011;46021;55.882;37.654;2022-09-12T01:20:04;11.82;;;6.40;;
50671;SDS011;46021;55.882;37.654;2022-09-12T01:23:16;10.68;;;6.40;;
50671;SDS011;46021;55.882;37.654;2022-09-12T01:26:11;11.40;;;6.72;;
50671;SDS011;46021;55.882;37.654;2022-09-12T01:28:58;10.73;;;6.53;;
50671;SDS011;46021;55.882;37.654;2022-09-12T01:31:39;12.82;;;6.53;;
50671;SDS011;46021;55.882;37.654;2022-09-12T01:34:16;13.18;;;6.22;;
50671;SDS011;46021;55.882;37.654;2022-09-12T01:36:53;15.85;;;7.63;;
50671;SDS011;46021;55.882;37.654;2022-09-12T01:39:27;10.93;;;5.88;;
50671;SDS011;46021;55.882;37.654;2022-09-12T01:42:04;12.20;;;6.97;;
50671;SDS011;46021;55.882;37.654;2022-09-12T01:44:38;14.57;;;7.85;;
50671;SDS011;46021;55.882;37.654;2022-09-12T01:47:14;12.32;;;7.15;;
50671;SDS011;46021;55.882;37.654;2022-09-12T01:49:49;12.93;;;6.80;;
50671;SDS011;46021;55.882;37.654;2022-09-12T01:52:23;15.38;;;7.25;;
50671;SDS011;46021;55.882;37.654;2022-09-12T01:54:56;11.05;;;7.15;;
50671;SDS011;46021;55.882;37.654;2022-09-12T01:57:30;12.07;;;6.32;;
50671;SDS011;46021;55.882;37.654;2022-09-12T02:00:03;12.07;;;7.90;;
50671;SDS011;46021;55.882;37.654;2022-09-12T02:02:40;15.77;;;7.90;;
50671;SDS011;46021;55.882;37.654;2022-09-12T02:05:14;13.27;;;7.90;;
50671;SDS011;46021;55.882;37.654;2022-09-12T02:07:46;16.42;;;8.40;;
50671;SDS011;46021;55.882;37.654;2022-09-12T02:10:16;13.43;;;8.15;;
50671;SDS011;46021;55.882;37.654;2022-09-12T02:12:46;14.93;;;8.32;;
50671;SDS011;46021;55.882;37.654;2022-09-12T02:15:18;18.15;;;8.48;;
50671;SDS011;46021;55.882;37.654;2022-09-12T02:17:49;14.77;;;8.38;;
50671;SDS011;46021;55.882;37.654;2022-09-12T02:20:18;16.20;;;8.48;;
50671;SDS011;46021;55.882;37.654;2022-09-12T02:22:47;15.50;;;8.40;;
50671;SDS011;46021;55.882;37.654;2022-09-12T02:25:17;16.90;;;8.75;;
50671;SDS011;46021;55.882;37.654;2022-09-12T02:27:45;19.42;;;8.75;;
50671;SDS011;46021;55.882;37.654;2022-09-12T02:30:15;14.48;;;9.13;;
50671;SDS011;46021;55.882;37.654;2022-09-12T02:35:13;16.92;;;10.18;;
50671;SDS011;46021;55.882;37.654;2022-09-12T02:37:49;16.77;;;9.20;;
50671;SDS011;46021;55.882;37.654;2022-09-12T02:40:22;19.60;;;9.30;;
50671;SDS011;46021;55.882;37.654;2022-09-12T02:42:49;16.07;;;9.53;;
50671;SDS011;46021;55.882;37.654;2022-09-12T02:45:17;17.53;;;9.63;;
50671;SDS011;46021;55.882;37.654;2022-09-12T02:47:47;15.88;;;9.20;;
50671;SDS011;46021;55.882;37.654;2022-09-12T02:50:19;16.15;;;8.93;;
50671;SDS011;46021;55.882;37.654;2022-09-12T02:52:45;16.13;;;9.60;;
50671;SDS011;46021;55.882;37.654;2022-09-12T02:55:13;14.70;;;9.20;;
50671;SDS011;46021;55.882;37.654;2022-09-12T02:57:40;18.48;;;9.27;;
50671;SDS011;46021;55.882;37.654;2022-09-12T03:00:07;18.58;;;9.60;;
50671;SDS011;46021;55.882;37.654;2022-09-12T03:02:39;19.70;;;9.73;;
50671;SDS011;46021;55.882;37.654;2022-09-12T03:05:17;20.48;;;10.20;;
50671;SDS011;46021;55.882;37.654;2022-09-12T03:10:52;19.67;;;10.35;;
50671;SDS011;46021;55.882;37.654;2022-09-12T03:13:35;20.23;;;10.20;;
50671;SDS011;46021;55.882;37.654;2022-09-12T03:16:11;18.40;;;11.13;;
50671;SDS011;46021;55.882;37.654;2022-09-12T03:18:48;20.63;;;10.27;;
50671;SDS011;46021;55.882;37.654;2022-09-12T03:21:21;21.45;;;10.55;;
50671;SDS011;46021;55.882;37.654;2022-09-12T03:23:58;18.75;;;10.45;;
50671;SDS011;46021;55.882;37.654;2022-09-12T03:26:31;19.77;;;10.50;;
50671;SDS011;46021;55.882;37.654;2022-09-12T03:29:03;15.68;;;9.32;;
50671;SDS011;46021;55.882;37.654;2022-09-12T03:31:32;21.98;;;10.45;;
50671;SDS011;46021;55.882;37.654;2022-09-12T03:33:59;14.90;;;8.98;;
50671;SDS011;46021;55.882;37.654;2022-09-12T03:36:27;16.52;;;8.98;;
50671;SDS011;46021;55.882;37.654;2022-09-12T03:38:54;16.92;;;9.60;;
50671;SDS011;46021;55.882;37.654;2022-09-12T03:41:21;19.10;;;9.10;;
50671;SDS011;46021;55.882;37.654;2022-09-12T03:43:48;17.85;;;9.70;;
50671;SDS011;46021;55.882;37.654;2022-09-12T03:46:14;17.90;;;9.07;;
50671;SDS011;46021;55.882;37.654;2022-09-12T03:48:41;16.30;;;9.07;;
50671;SDS011;46021;55.882;37.654;2022-09-12T03:51:08;17.13;;;8.82;;
50671;SDS011;46021;55.882;37.654;2022-09-12T03:56:04;16.88;;;8.80;;
50671;SDS011;46021;55.882;37.654;2022-09-12T03:58:32;13.55;;;8.15;;
50671;SDS011;46021;55.882;37.654;2022-09-12T04:01:00;19.23;;;8.43;;
50671;SDS011;46021;55.882;37.654;2022-09-12T04:03:32;15.10;;;8.30;;
50671;SDS011;46021;55.882;37.654;2022-09-12T04:05:58;12.38;;;8.18;;
50671;SDS011;46021;55.882;37.654;2022-09-12T04:08:26;14.65;;;8.60;;
50671;SDS011;46021;55.882;37.654;2022-09-12T04:10:54;14.77;;;8.18;;
50671;SDS011;46021;55.882;37.654;2022-09-12T04:13:27;14.75;;;8.20;;
50671;SDS011;46021;55.882;37.654;2022-09-12T04:15:54;16.30;;;9.57;;
50671;SDS011;46021;55.882;37.654;2022-09-12T04:18:22;16.58;;;8.80;;
50671;SDS011;46021;55.882;37.654;2022-09-12T04:20:48;14.65;;;8.57;;
50671;SDS011;46021;55.882;37.654;2022-09-12T04:23:15;15.52;;;8.27;;
50671;SDS011;46021;55.882;37.654;2022-09-12T04:25:41;15.27;;;9.05;;
50671;SDS011;46021;55.882;37.654;2022-09-12T04:28:09;15.30;;;8.65;;
50671;SDS011;46021;55.882;37.654;2022-09-12T04:30:35;13.30;;;8.40;;
50671;SDS011;46021;55.882;37.654;2022-09-12T04:33:02;15.63;;;9.80;;
50671;SDS011;46021;55.882;37.654;2022-09-12T04:35:28;19.52;;;9.40;;
50671;SDS011;46021;55.882;37.654;2022-09-12T04:37:55;14.32;;;8.43;;
50671;SDS011;46021;55.882;37.654;2022-09-12T04:40:22;13.45;;;8.75;;
50671;SDS011;46021;55.882;37.654;2022-09-12T04:42:48;14.88;;;8.38;;
50671;SDS011;46021;55.882;37.654;2022-09-12T04:45:16;17.73;;;9.30;;
50671;SDS011;46021;55.882;37.654;2022-09-12T04:47:42;13.00;;;8.85;;
50671;SDS011;46021;55.882;37.654;2022-09-12T04:52:37;14.80;;;9.07;;
50671;SDS011;46021;55.882;37.654;2022-09-12T04:55:04;13.38;;;8.75;;
50671;SDS011;46021;55.882;37.654;2022-09-12T04:57:31;17.20;;;8.90;;
50671;SDS011;46021;55.882;37.654;2022-09-12T04:59:58;14.55;;;9.98;;
50671;SDS011;46021;55.882;37.654;2022-09-12T05:02:26;14.73;;;9.57;;
50671;SDS011;46021;55.882;37.654;2022-09-12T05:04:53;14.63;;;9.68;;
50671;SDS011;46021;55.882;37.654;2022-09-12T05:07:19;15.13;;;9.50;;
50671;SDS011;46021;55.882;37.654;2022-09-12T05:09:46;14.80;;;9.43;;
50671;SDS011;46021;55.882;37.654;2022-09-12T05:12:12;13.05;;;9.32;;
50671;SDS011;46021;55.882;37.654;2022-09-12T05:14:39;16.55;;;9.77;;
50671;SDS011;46021;55.882;37.654;2022-09-12T05:17:06;18.25;;;10.15;;
50671;SDS011;46021;55.882;37.654;2022-09-12T05:19:33;16.13;;;9.90;;
50671;SDS011;46021;55.882;37.654;2022-09-12T05:22:00;13.75;;;9.68;;
50671;SDS011;46021;55.882;37.654;2022-09-12T05:24:27;14.82;;;9.75;;
50671;SDS011;46021;55.882;37.654;2022-09-12T05:26:53;15.70;;;10.38;;
50671;SDS011;46021;55.882;37.654;2022-09-12T05:29:20;14.88;;;9.80;;
50671;SDS011;46021;55.882;37.654;2022-09-12T05:31:46;15.32;;;10.23;;
50671;SDS011;46021;55.882;37.654;2022-09-12T05:34:14;16.95;;;9.98;;
50671;SDS011;46021;55.882;37.654;2022-09-12T05:36:41;13.95;;;9.88;;
50671;SDS011;46021;55.882;37.654;2022-09-12T05:39:08;15.80;;;10.23;;
50671;SDS011;46021;55.882;37.654;2022-09-12T05:41:34;13.35;;;9.80;;
50671;SDS011;46021;55.882;37.654;2022-09-12T05:44:02;14.38;;;10.15;;
50671;SDS011;46021;55.882;37.654;2022-09-12T05:46:30;14.13;;;9.90;;
50671;SDS011;46021;55.882;37.654;2022-09-12T05:49:04;14.57;;;10.13;;
50671;SDS011;46021;55.882;37.654;2022-09-12T05:51:33;19.67;;;10.80;;
50671;SDS011;46021;55.882;37.654;2022-09-12T05:54:04;14.52;;;10.00;;
50671;SDS011;46021;55.882;37.654;2022-09-12T05:56:33;15.35;;;10.00;;
50671;SDS011;46021;55.882;37.654;2022-09-12T05:59:04;16.10;;;10.63;;
50671;SDS011;46021;55.882;37.654;2022-09-12T06:01:32;16.50;;;9.90;;
50671;SDS011;46021;55.882;37.654;2022-09-12T06:04:00;16.25;;;9.50;;
50671;SDS011;46021;55.882;37.654;2022-09-12T06:06:30;14.88;;;9.82;;
50671;SDS011;46021;55.882;37.654;2022-09-12T06:11:25;14.55;;;10.23;;
50671;SDS011;46021;55.882;37.654;2022-09-12T06:13:54;16.58;;;9.65;;
50671;SDS011;46021;55.882;37.654;2022-09-12T06:16:21;14.20;;;8.70;;
50671;SDS011;46021;55.882;37.654;2022-09-12T06:18:50;13.32;;;8.80;;
50671;SDS011;46021;55.882;37.654;2022-09-12T06:23:45;15.02;;;8.73;;
50671;SDS011;46021;55.882;37.654;2022-09-12T06:26:13;12.48;;;8.32;;
50671;SDS011;46021;55.882;37.654;2022-09-12T06:28:42;10.25;;;7.68;;
50671;SDS011;46021;55.882;37.654;2022-09-12T06:31:10;14.15;;;8.82;;
50671;SDS011;46021;55.882;37.654;2022-09-12T06:33:43;15.25;;;8.73;;
50671;SDS011;46021;55.882;37.654;2022-09-12T06:36:11;14.50;;;8.50;;
50671;SDS011;46021;55.882;37.654;2022-09-12T06:38:42;13.00;;;7.47;;
50671;SDS011;46021;55.882;37.654;2022-09-12T06:41:11;16.40;;;8.25;;
50671;SDS011;46021;55.882;37.654;2022-09-12T06:43:38;12.20;;;7.88;;
50671;SDS011;46021;55.882;37.654;2022-09-12T06:46:06;14.65;;;9.13;;
50671;SDS011;46021;55.882;37.654;2022-09-12T06:48:32;13.98;;;9.45;;
50671;SDS011;46021;55.882;37.654;2022-09-12T06:51:00;14.55;;;8.02;;
50671;SDS011;46021;55.882;37.654;2022-09-12T06:53:28;14.25;;;8.45;;
50671;SDS011;46021;55.882;37.654;2022-09-12T06:55:57;17.92;;;8.43;;
50671;SDS011;46021;55.882;37.654;2022-09-12T07:00:57;12.48;;;7.55;;
50671;SDS011;46021;55.882;37.654;2022-09-12T07:03:28;13.05;;;8.13;;
50671;SDS011;46021;55.882;37.654;2022-09-12T07:05:56;13.80;;;8.00;;
50671;SDS011;46021;55.882;37.654;2022-09-12T07:08:26;12.80;;;8.18;;
50671;SDS011;46021;55.882;37.654;2022-09-12T07:10:56;18.65;;;10.20;;
50671;SDS011;46021;55.882;37.654;2022-09-12T07:13:23;13.60;;;8.10;;
50671;SDS011;46021;55.882;37.654;2022-09-12T07:15:50;12.87;;;6.97;;
50671;SDS011;46021;55.882;37.654;2022-09-12T07:18:17;13.10;;;6.90;;
50671;SDS011;46021;55.882;37.654;2022-09-12T07:20:44;11.80;;;6.93;;
50671;SDS011;46021;55.882;37.654;2022-09-12T07:23:11;11.00;;;7.05;;
50671;SDS011;46021;55.882;37.654;2022-09-12T07:25:38;10.95;;;6.65;;
50671;SDS011;46021;55.882;37.654;2022-09-12T07:28:04;11.20;;;6.90;;
50671;SDS011;46021;55.882;37.654;2022-09-12T07:30:31;10.15;;;6.85;;
50671;SDS011;46021;55.882;37.654;2022-09-12T07:32:57;15.25;;;6.78;;
50671;SDS011;46021;55.882;37.654;2022-09-12T07:35:24;9.95;;;6.70;;
50671;SDS011;46021;55.882;37.654;2022-09-12T07:37:51;10.57;;;6.90;;
50671;SDS011;46021;55.882;37.654;2022-09-12T07:40:17;10.70;;;6.25;;
50671;SDS011;46021;55.882;37.654;2022-09-12T07:42:44;8.18;;;6.03;;
50671;SDS011;46021;55.882;37.654;2022-09-12T07:45:12;9.55;;;6.55;;
50671;SDS011;46021;55.882;37.654;2022-09-12T07:47:38;8.68;;;6.00;;
50671;SDS011;46021;55.882;37.654;2022-09-12T07:50:05;10.20;;;7.32;;
50671;SDS011;46021;55.882;37.654;2022-09-12T07:52:32;9.75;;;6.13;;
50671;SDS011;46021;55.882;37.654;2022-09-12T07:55:01;11.52;;;6.85;;
50671;SDS011;46021;55.882;37.654;2022-09-12T07:57:30;12.18;;;6.60;;
50671;SDS011;46021;55.882;37.654;2022-09-12T07:59:56;9.80;;;6.47;;
50671;SDS011;46021;55.882;37.654;2022-09-12T08:02:23;12.65;;;6.95;;
50671;SDS011;46021;55.882;37.654;2022-09-12T08:04:49;10.05;;;6.28;;
50671;SDS011;46021;55.882;37.654;2022-09-12T08:07:17;12.13;;;7.32;;
50671;SDS011;46021;55.882;37.654;2022-09-12T08:09:43;10.68;;;6.60;;
50671;SDS011;46021;55.882;37.654;2022-09-12T08:12:11;11.17;;;6.87;;
50671;SDS011;46021;55.882;37.654;2022-09-12T08:14:38;9.82;;;6.57;;
50671;SDS011;46021;55.882;37.654;2022-09-12T08:17:04;14.27;;;7.80;;
50671;SDS011;46021;55.882;37.654;2022-09-12T08:19:31;16.25;;;7.95;;
50671;SDS011;46021;55.882;37.654;2022-09-12T08:21:58;13.35;;;8.32;;
50671;SDS011;46021;55.882;37.654;2022-09-12T08:24:25;21.83;;;9.03;;
50671;SDS011;46021;55.882;37.654;2022-09-12T08:26:52;16.97;;;9.30;;
50671;SDS011;46021;55.882;37.654;2022-09-12T08:29:19;14.00;;;9.02;;
50671;SDS011;46021;55.882;37.654;2022-09-12T08:31:46;18.40;;;9.23;;
50671;SDS011;46021;55.882;37.654;2022-09-12T08:34:12;15.48;;;9.48;;
50671;SDS011;46021;55.882;37.654;2022-09-12T08:36:41;15.63;;;9.77;;
50671;SDS011;46021;55.882;37.654;2022-09-12T08:39:10;21.95;;;11.30;;
50671;SDS011;46021;55.882;37.654;2022-09-12T08:41:40;19.00;;;11.55;;
50671;SDS011;46021;55.882;37.654;2022-09-12T08:44:12;20.60;;;11.55;;
50671;SDS011;46021;55.882;37.654;2022-09-12T08:47:01;19.65;;;12.70;;
50671;SDS011;46021;55.882;37.654;2022-09-12T08:49:46;26.42;;;13.13;;
50671;SDS011;46021;55.882;37.654;2022-09-12T08:52:26;24.70;;;14.43;;
50671;SDS011;46021;55.882;37.654;2022-09-12T08:54:56;31.08;;;13.23;;
50671;SDS011;46021;55.882;37.654;2022-09-12T08:57:22;23.25;;;13.63;;
50671;SDS011;46021;55.882;37.654;2022-09-12T08:59:50;25.73;;;13.60;;
50671;SDS011;46021;55.882;37.654;2022-09-12T09:02:23;22.05;;;14.05;;
50671;SDS011;46021;55.882;37.654;2022-09-12T09:05:02;27.05;;;14.23;;
50671;SDS011;46021;55.882;37.654;2022-09-12T09:07:48;23.90;;;14.38;;
50671;SDS011;46021;55.882;37.654;2022-09-12T09:10:37;26.95;;;15.20;;
50671;SDS011;46021;55.882;37.654;2022-09-12T09:13:14;26.65;;;14.93;;
50671;SDS011;46021;55.882;37.654;2022-09-12T09:16:06;22.98;;;14.13;;
50671;SDS011;46021;55.882;37.654;2022-09-12T09:18:39;24.80;;;14.48;;
50671;SDS011;46021;55.882;37.654;2022-09-12T09:21:18;25.92;;;14.18;;
50671;SDS011;46021;55.882;37.654;2022-09-12T09:23:49;24.58;;;14.45;;
50671;SDS011;46021;55.882;37.654;2022-09-12T09:26:22;25.13;;;13.93;;
50671;SDS011;46021;55.882;37.654;2022-09-12T09:28:54;26.65;;;14.55;;
50671;SDS011;46021;55.882;37.654;2022-09-12T09:31:25;23.65;;;14.00;;
50671;SDS011;46021;55.882;37.654;2022-09-12T09:33:57;19.17;;;11.40;;
50671;SDS011;46021;55.882;37.654;2022-09-12T09:36:28;22.95;;;12.80;;
50671;SDS011;46021;55.882;37.654;2022-09-12T09:39:03;20.75;;;11.77;;
50671;SDS011;46021;55.882;37.654;2022-09-12T09:41:38;22.73;;;11.55;;
50671;SDS011;46021;55.882;37.654;2022-09-12T09:44:15;20.75;;;11.85;;
50671;SDS011;46021;55.882;37.654;2022-09-12T09:46:43;23.55;;;12.15;;
50671;SDS011;46021;55.882;37.654;2022-09-12T09:49:10;18.65;;;10.05;;
50671;SDS011;46021;55.882;37.654;2022-09-12T09:51:39;20.70;;;10.50;;
50671;SDS011;46021;55.882;37.654;2022-09-12T09:54:12;17.73;;;10.45;;
50671;SDS011;46021;55.882;37.654;2022-09-12T09:56:43;18.45;;;9.85;;
50671;SDS011;46021;55.882;37.654;2022-09-12T09:59:11;19.33;;;11.07;;
50671;SDS011;46021;55.882;37.654;2022-09-12T10:01:44;18.30;;;10.73;;
50671;SDS011;46021;55.882;37.654;2022-09-12T10:04:19;18.30;;;10.77;;
50671;SDS011;46021;55.882;37.654;2022-09-12T10:06:50;18.77;;;10.70;;
50671;SDS011;46021;55.882;37.654;2022-09-12T10:09:20;20.70;;;9.90;;
50671;SDS011;46021;55.882;37.654;2022-09-12T10:11:48;18.45;;;9.88;;
50671;SDS011;46021;55.882;37.654;2022-09-12T10:14:25;18.33;;;10.05;;
50671;SDS011;46021;55.882;37.654;2022-09-12T10:17:03;15.90;;;9.55;;
50671;SDS011;46021;55.882;37.654;2022-09-12T10:19:44;19.58;;;9.32;;
50671;SDS011;46021;55.882;37.654;2022-09-12T10:22:13;16.38;;;9.35;;
50671;SDS011;46021;55.882;37.654;2022-09-12T10:24:45;18.45;;;9.45;;
50671;SDS011;46021;55.882;37.654;2022-09-12T10:27:18;18.15;;;9.52;;
50671;SDS011;46021;55.882;37.654;2022-09-12T10:29:47;16.55;;;8.80;;
50671;SDS011;46021;55.882;37.654;2022-09-12T10:32:20;18.70;;;9.40;;
50671;SDS011;46021;55.882;37.654;2022-09-12T10:34:51;18.65;;;8.90;;
50671;SDS011;46021;55.882;37.654;2022-09-12T10:37:22;14.98;;;8.65;;
50671;SDS011;46021;55.882;37.654;2022-09-12T10:39:52;17.42;;;9.10;;
50671;SDS011;46021;55.882;37.654;2022-09-12T10:42:44;17.25;;;8.95;;
50671;SDS011;46021;55.882;37.654;2022-09-12T10:45:20;18.17;;;8.80;;
50671;SDS011;46021;55.882;37.654;2022-09-12T10:47:49;15.85;;;9.05;;
50671;SDS011;46021;55.882;37.654;2022-09-12T10:50:20;19.88;;;8.70;;
50671;SDS011;46021;55.882;37.654;2022-09-12T10:52:48;14.63;;;8.18;;
50671;SDS011;46021;55.882;37.654;2022-09-12T10:55:14;16.25;;;8.68;;
50671;SDS011;46021;55.882;37.654;2022-09-12T11:00:49;17.65;;;8.52;;
50671;SDS011;46021;55.882;37.654;2022-09-12T11:03:28;14.10;;;8.05;;
50671;SDS011;46021;55.882;37.654;2022-09-12T11:06:06;21.35;;;8.70;;
50671;SDS011;46021;55.882;37.654;2022-09-12T11:08:47;16.55;;;8.70;;
50671;SDS011;46021;55.882;37.654;2022-09-12T11:11:27;15.63;;;8.57;;
50671;SDS011;46021;55.882;37.654;2022-09-12T11:14:14;16.00;;;8.13;;
50671;SDS011;46021;55.882;37.654;2022-09-12T11:16:51;17.67;;;8.63;;
50671;SDS011;46021;55.882;37.654;2022-09-12T11:22:27;18.10;;;8.57;;
50671;SDS011;46021;55.882;37.654;2022-09-12T11:25:11;13.90;;;8.13;;
50671;SDS011;46021;55.882;37.654;2022-09-12T11:27:48;13.85;;;7.40;;
50671;SDS011;46021;55.882;37.654;2022-09-12T11:30:36;16.02;;;7.88;;
50671;SDS011;46021;55.882;37.654;2022-09-12T11:33:13;18.20;;;9.73;;
50671;SDS011;46021;55.882;37.654;2022-09-12T11:36:01;17.25;;;8.60;;
50671;SDS011;46021;55.882;37.654;2022-09-12T11:38:40;15.05;;;8.05;;
50671;SDS011;46021;55.882;37.654;2022-09-12T11:41:16;15.95;;;8.00;;
50671;SDS011;46021;55.882;37.654;2022-09-12T11:43:49;12.68;;;7.40;;
50671;SDS011;46021;55.882;37.654;2022-09-12T11:46:21;14.30;;;7.63;;
50671;SDS011;46021;55.882;37.654;2022-09-12T11:48:54;12.95;;;7.30;;
50671;SDS011;46021;55.882;37.654;2022-09-12T11:51:26;12.98;;;7.70;;
50671;SDS011;46021;55.882;37.654;2022-09-12T11:54:03;13.82;;;6.93;;
50671;SDS011;46021;55.882;37.654;2022-09-12T11:56:40;14.80;;;7.18;;
50671;SDS011;46021;55.882;37.654;2022-09-12T11:59:12;15.85;;;7.05;;
50671;SDS011;46021;55.882;37.654;2022-09-12T12:01:45;14.52;;;7.15;;
50671;SDS011;46021;55.882;37.654;2022-09-12T12:04:19;10.15;;;7.03;;
50671;SDS011;46021;55.882;37.654;2022-09-12T12:06:54;15.95;;;6.65;;
50671;SDS011;46021;55.882;37.654;2022-09-12T12:09:26;14.65;;;6.50;;
50671;SDS011;46021;55.882;37.654;2022-09-12T12:11:53;12.68;;;7.05;;
50671;SDS011;46021;55.882;37.654;2022-09-12T12:14:25;13.20;;;7.05;;
50671;SDS011;46021;55.882;37.654;2022-09-12T12:16:57;10.18;;;6.43;;
50671;SDS011;46021;55.882;37.654;2022-09-12T12:19:31;14.55;;;7.07;;
50671;SDS011;46021;55.882;37.654;2022-09-12T12:22:05;16.05;;;7.22;;
50671;SDS011;46021;55.882;37.654;2022-09-12T12:24:51;14.68;;;6.60;;
50671;SDS011;46021;55.882;37.654;2022-09-12T12:27:23;14.57;;;6.53;;
50671;SDS011;46021;55.882;37.654;2022-09-12T12:45:48;18.05;;;6.53;;
50671;SDS011;46021;55.882;37.654;2022-09-12T12:51:41;9.55;;;5.43;;
50671;SDS011;46021;55.882;37.654;2022-09-12T12:57:17;9.98;;;5.90;;
50671;SDS011;46021;55.882;37.654;2022-09-12T12:59:51;15.95;;;6.30;;
50671;SDS011;46021;55.882;37.654;2022-09-12T13:02:23;12.82;;;5.78;;
50671;SDS011;46021;55.882;37.654;2022-09-12T13:04:53;10.15;;;5.72;;
50671;SDS011;46021;55.882;37.654;2022-09-12T13:07:26;8.95;;;5.57;;
50671;SDS011;46021;55.882;37.654;2022-09-12T13:09:56;10.02;;;5.47;;
50671;SDS011;46021;55.882;37.654;2022-09-12T13:12:25;9.30;;;5.60;;
50671;SDS011;46021;55.882;37.654;2022-09-12T13:14:55;12.23;;;5.35;;
50671;SDS011;46021;55.882;37.654;2022-09-12T13:17:28;9.95;;;5.55;;
50671;SDS011;46021;55.882;37.654;2022-09-12T13:20:05;10.77;;;5.65;;
50671;SDS011;46021;55.882;37.654;2022-09-12T13:22:41;9.40;;;5.38;;
50671;SDS011;46021;55.882;37.654;2022-09-12T13:25:20;11.35;;;5.65;;
50671;SDS011;46021;55.882;37.654;2022-09-12T13:30:42;9.13;;;4.93;;
50671;SDS011;46021;55.882;37.654;2022-09-12T13:33:25;9.52;;;4.60;;
50671;SDS011;46021;55.882;37.654;2022-09-12T13:36:05;7.35;;;5.13;;
50671;SDS011;46021;55.882;37.654;2022-09-12T13:38:48;8.57;;;4.60;;
50671;SDS011;46021;55.882;37.654;2022-09-12T13:41:24;8.10;;;4.75;;
50671;SDS011;46021;55.882;37.654;2022-09-12T13:44:02;9.80;;;4.43;;
50671;SDS011;46021;55.882;37.654;2022-09-12T13:46:37;7.22;;;4.57;;
50671;SDS011;46021;55.882;37.654;2022-09-12T13:49:14;8.60;;;5.03;;
50671;SDS011;46021;55.882;37.654;2022-09-12T13:51:45;6.70;;;4.70;;
50671;SDS011;46021;55.882;37.654;2022-09-12T13:54:25;10.20;;;4.40;;
50671;SDS011;46021;55.882;37.654;2022-09-12T13:56:52;7.40;;;4.15;;
50671;SDS011;46021;55.882;37.654;2022-09-12T13:59:18;7.35;;;4.40;;
50671;SDS011;46021;55.882;37.654;2022-09-12T14:04:15;10.68;;;4.40;;
50671;SDS011;46021;55.882;37.654;2022-09-12T14:07:14;7.00;;;3.90;;
50671;SDS011;46021;55.882;37.654;2022-09-12T14:09:51;8.05;;;4.40;;
50671;SDS011;46021;55.882;37.654;2022-09-12T14:12:22;8.10;;;3.88;;
50671;SDS011;46021;55.882;37.654;2022-09-12T14:14:52;9.52;;;4.30;;
50671;SDS011;46021;55.882;37.654;2022-09-12T14:17:22;7.82;;;4.13;;
50671;SDS011;46021;55.882;37.654;2022-09-12T14:19:54;7.30;;;3.63;;
50671;SDS011;46021;55.882;37.654;2022-09-12T14:22:23;10.27;;;3.88;;
50671;SDS011;46021;55.882;37.654;2022-09-12T14:24:54;6.32;;;3.75;;
50671;SDS011;46021;55.882;37.654;2022-09-12T14:27:24;21.00;;;4.22;;
50671;SDS011;46021;55.882;37.654;2022-09-12T14:29:55;6.45;;;3.50;;
50671;SDS011;46021;55.882;37.654;2022-09-12T14:32:31;6.83;;;3.77;;
50671;SDS011;46021;55.882;37.654;2022-09-12T14:35:05;7.20;;;3.85;;
50671;SDS011;46021;55.882;37.654;2022-09-12T14:37:43;7.97;;;4.60;;
50671;SDS011;46021;55.882;37.654;2022-09-12T14:40:14;13.13;;;6.43;;
50671;SDS011;46021;55.882;37.654;2022-09-12T14:42:44;8.55;;;4.70;;
50671;SDS011;46021;55.882;37.654;2022-09-12T14:45:15;9.88;;;4.35;;
50671;SDS011;46021;55.882;37.654;2022-09-12T14:47:43;12.82;;;5.93;;
50671;SDS011;46021;55.882;37.654;2022-09-12T14:50:16;9.15;;;4.00;;
50671;SDS011;46021;55.882;37.654;2022-09-12T14:52:45;6.53;;;3.65;;
50671;SDS011;46021;55.882;37.654;2022-09-12T14:55:19;8.23;;;4.50;;
50671;SDS011;46021;55.882;37.654;2022-09-12T14:58:05;6.18;;;3.80;;
50671;SDS011;46021;55.882;37.654;2022-09-12T15:00:36;6.43;;;4.00;;
50671;SDS011;46021;55.882;37.654;2022-09-12T15:03:21;6.35;;;3.53;;
50671;SDS011;46021;55.882;37.654;2022-09-12T15:05:51;6.88;;;4.38;;
50671;SDS011;46021;55.882;37.654;2022-09-12T15:08:17;6.18;;;4.00;;
50671;SDS011;46021;55.882;37.654;2022-09-12T15:10:44;7.57;;;4.30;;
50671;SDS011;46021;55.882;37.654;2022-09-12T15:13:12;6.07;;;3.90;;
50671;SDS011;46021;55.882;37.654;2022-09-12T15:15:41;9.18;;;3.88;;
50671;SDS011;46021;55.882;37.654;2022-09-12T15:20:36;9.40;;;4.30;;
50671;SDS011;46021;55.882;37.654;2022-09-12T15:23:06;8.93;;;4.22;;
50671;SDS011;46021;55.882;37.654;2022-09-12T15:25:39;7.55;;;4.15;;
50671;SDS011;46021;55.882;37.654;2022-09-12T15:28:10;7.85;;;4.35;;
50671;SDS011;46021;55.882;37.654;2022-09-12T15:30:41;9.77;;;3.80;;
50671;SDS011;46021;55.882;37.654;2022-09-12T15:33:09;10.38;;;4.55;;
50671;SDS011;46021;55.882;37.654;2022-09-12T15:38:03;5.35;;;3.35;;
50671;SDS011;46021;55.882;37.654;2022-09-12T15:40:30;6.78;;;4.07;;